Time;durP1;ratioP1;P1;durP2;ratioP2;P2;SDS_P1;SDS_P2;PMS_P1;PMS_P2;Temp;Humidity;BMP_temperature;BMP_pressure;BME280_temperature;BME280_humidity;BME280_pressure;Samples;Min_cycle;Max_cycle;Signal;HPM_P1;HPM_P2
2023/02/13 00:00:58;;;;;;;56.87;43.10;;;;;;;3.45;100.00;103525.38;2064557;28;20198;-60
2023/02/13 00:01:58;;;;;;;55.10;40.37;;;;;;;3.38;100.00;103527.78;2070799;28;20202;-61
2023/02/13 00:02:59;;;;;;;53.87;41.50;;;;;;;3.32;100.00;103531.75;2066610;28;20197;-60
2023/02/13 00:03:59;;;;;;;56.33;41.97;;;;;;;3.33;100.00;103523.22;2067967;28;20259;-61
2023/02/13 00:05:00;;;;;;;54.57;41.60;;;;;;;3.30;100.00;103532.06;2071347;28;20193;-60
2023/02/13 00:06:00;;;;;;;56.17;42.40;;;;;;;3.18;100.00;103509.91;2071095;28;20181;-60
2023/02/13 00:07:01;;;;;;;55.77;41.87;;;;;;;3.27;100.00;103535.44;2072291;28;20174;-60
2023/02/13 00:08:01;;;;;;;56.30;41.93;;;;;;;3.32;100.00;103529.81;2072251;28;20231;-60
2023/02/13 00:09:02;;;;;;;58.00;42.37;;;;;;;3.07;100.00;103492.09;2071749;28;20220;-60
2023/02/13 00:10:03;;;;;;;53.23;40.53;;;;;;;3.29;100.00;103533.16;2064588;28;20597;-60
2023/02/13 00:11:03;;;;;;;55.83;41.67;;;;;;;3.20;100.00;103526.03;2069550;28;20173;-61
2023/02/13 00:12:06;;;;;;;58.37;41.83;;;;;;;3.16;100.00;103536.00;2069090;28;20221;-61
2023/02/13 00:13:06;;;;;;;59.10;43.50;;;;;;;3.15;100.00;103542.59;2071715;28;20223;-60
2023/02/13 00:14:07;;;;;;;57.23;43.23;;;;;;;3.18;100.00;103539.25;2068995;28;20237;-60
2023/02/13 00:15:08;;;;;;;59.60;43.53;;;;;;;3.17;100.00;103530.22;2065389;28;20578;-61
2023/02/13 00:16:09;;;;;;;59.93;43.03;;;;;;;3.25;100.00;103550.56;2071419;28;20174;-61
2023/02/13 00:17:09;;;;;;;58.77;43.30;;;;;;;3.22;100.00;103548.44;2065658;28;20452;-60
2023/02/13 00:18:10;;;;;;;58.67;43.73;;;;;;;3.12;100.00;103527.59;2072239;28;20174;-60
2023/02/13 00:19:10;;;;;;;57.90;44.53;;;;;;;3.20;100.00;103545.22;2065097;28;20578;-61
2023/02/13 00:20:11;;;;;;;59.23;44.27;;;;;;;3.17;100.00;103548.56;2069264;28;20655;-60
2023/02/13 00:21:12;;;;;;;56.93;43.00;;;;;;;2.35;100.00;103422.13;2072165;28;20190;-61
2023/02/13 00:22:15;;;;;;;65.43;47.28;;;;;;;3.16;100.00;103550.50;2072066;28;20216;-60
2023/02/13 00:23:15;;;;;;;62.83;45.92;;;;;;;3.17;100.00;103548.56;2069307;28;20683;-60
2023/02/13 00:24:16;;;;;;;61.07;44.60;;;;;;;3.19;100.00;103551.81;2065222;28;20618;-60
2023/02/13 00:25:16;;;;;;;59.43;46.20;;;;;;;3.17;100.00;103551.31;2071234;28;20178;-60
2023/02/13 00:26:17;;;;;;;59.23;43.83;;;;;;;3.14;100.00;103551.94;2072164;28;20197;-61
2023/02/13 00:27:18;;;;;;;62.97;46.83;;;;;;;3.13;100.00;103548.38;2071926;28;20189;-61
2023/02/13 00:28:18;;;;;;;58.73;43.33;;;;;;;3.11;100.00;103550.63;2066444;28;20685;-60
2023/02/13 00:29:18;;;;;;;55.97;43.83;;;;;;;3.08;100.00;103551.25;2068238;28;20683;-61
2023/02/13 00:30:21;;;;;;;58.23;43.07;;;;;;;3.12;100.00;103555.00;2071914;28;20193;-60
2023/02/13 00:31:21;;;;;;;58.40;42.50;;;;;;;3.13;100.00;103558.56;2071268;28;20237;-60
2023/02/13 00:32:22;;;;;;;58.47;43.87;;;;;;;3.06;100.00;103550.75;2071546;28;20181;-61
2023/02/13 00:33:22;;;;;;;60.57;44.73;;;;;;;3.08;100.00;103556.72;2071629;28;20181;-60
2023/02/13 00:34:22;;;;;;;58.70;44.27;;;;;;;3.08;100.00;103564.16;2071771;28;20191;-61
2023/02/13 00:35:23;;;;;;;56.97;43.27;;;;;;;3.05;100.00;103562.84;2071354;28;20194;-60
2023/02/13 00:36:24;;;;;;;57.87;44.33;;;;;;;3.07;100.00;103562.50;2072570;28;20273;-61
2023/02/13 00:37:25;;;;;;;57.20;43.67;;;;;;;2.96;100.00;103544.72;2071878;28;20185;-60
2023/02/13 00:38:25;;;;;;;54.27;41.50;;;;;;;3.09;100.00;103561.09;2071378;28;20225;-61
2023/02/13 00:39:26;;;;;;;57.27;42.13;;;;;;;3.11;100.00;103560.78;2068100;28;20350;-60
2023/02/13 00:40:26;;;;;;;54.47;41.70;;;;;;;3.10;100.00;103559.16;2065566;28;20178;-60
2023/02/13 00:41:26;;;;;;;57.37;43.17;;;;;;;3.05;100.00;103562.84;2071866;28;20256;-61
2023/02/13 00:42:27;;;;;;;57.07;42.93;;;;;;;3.01;100.00;103552.81;2071504;28;20190;-61
2023/02/13 00:43:28;;;;;;;57.13;43.23;;;;;;;3.08;100.00;103559.47;2070774;28;20181;-60
2023/02/13 00:44:28;;;;;;;56.90;42.40;;;;;;;3.11;100.00;103558.03;2064076;28;20203;-60
2023/02/13 00:45:28;;;;;;;55.10;42.33;;;;;;;1.90;100.00;103359.47;2069033;28;20625;-60
2023/02/13 00:46:29;;;;;;;57.53;42.23;;;;;;;3.15;100.00;103559.03;2072219;28;20209;-60
2023/02/13 00:47:29;;;;;;;56.83;42.90;;;;;;;3.15;100.00;103559.03;2071701;28;20663;-60
2023/02/13 00:48:32;;;;;;;55.17;42.50;;;;;;;3.05;100.00;103538.19;2072300;28;20186;-60
2023/02/13 00:49:32;;;;;;;54.80;42.35;;;;;;;3.19;100.00;103571.00;2071962;28;20178;-61
2023/02/13 00:50:32;;;;;;;56.33;42.67;;;;;;;3.20;100.00;103562.47;2071255;28;20185;-60
2023/02/13 00:51:33;;;;;;;58.20;43.27;;;;;;;3.20;100.00;103562.47;2072015;28;20652;-60
2023/02/13 00:52:34;;;;;;;54.50;41.80;;;;;;;3.19;100.00;103560.84;2071685;28;20337;-60
2023/02/13 00:53:35;;;;;;;62.33;45.93;;;;;;;3.20;100.00;103564.41;2066042;28;20190;-60
2023/02/13 00:54:36;;;;;;;57.00;42.30;;;;;;;3.20;100.00;103557.00;2068661;28;20204;-60
2023/02/13 00:55:36;;;;;;;57.23;43.30;;;;;;;3.18;100.00;103552.94;2067106;28;20656;-60
2023/02/13 00:56:37;;;;;;;58.50;43.27;;;;;;;3.21;100.00;103555.88;2069841;28;20264;-60
2023/02/13 00:57:37;;;;;;;58.53;44.10;;;;;;;3.21;100.00;103553.13;2074462;28;20182;-60
2023/02/13 00:58:37;;;;;;;58.87;42.87;;;;;;;3.22;100.00;103542.97;2064667;28;20178;-60
2023/02/13 00:59:38;;;;;;;60.13;44.53;;;;;;;3.22;100.00;103554.75;2072088;28;20428;-60
2023/02/13 01:00:39;;;;;;;57.20;44.43;;;;;;;3.21;100.00;103557.78;2064335;28;20191;-60
2023/02/13 01:01:39;;;;;;;61.70;43.57;;;;;;;3.21;100.00;103555.88;2070178;28;20195;-60
2023/02/13 01:02:39;;;;;;;58.67;44.80;;;;;;;3.13;100.00;103548.38;2069962;28;20261;-60
2023/02/13 01:03:40;;;;;;;58.80;43.90;;;;;;;3.19;100.00;103554.56;2076141;28;20181;-60
2023/02/13 01:04:40;;;;;;;57.33;44.20;;;;;;;3.18;100.00;103552.94;2073407;28;20197;-60
2023/02/13 01:05:42;;;;;;;56.53;43.10;;;;;;;3.00;100.00;103515.56;2065550;28;20184;-60
2023/02/13 01:06:42;;;;;;;56.53;43.08;;;;;;;3.02;100.00;103516.06;2071013;28;20231;-60
2023/02/13 01:07:43;;;;;;;54.90;41.97;;;;;;;3.16;100.00;103539.56;2067717;28;20217;-60
2023/02/13 01:08:43;;;;;;;57.13;42.93;;;;;;;3.16;100.00;103552.44;2071897;28;20185;-60
2023/02/13 01:09:44;;;;;;;54.27;42.23;;;;;;;3.16;100.00;103536.00;2064956;28;20188;-60
2023/02/13 01:10:46;;;;;;;56.73;41.57;;;;;;;3.15;100.00;103537.94;2069599;28;20272;-60
2023/02/13 01:11:47;;;;;;;54.65;40.40;;;;;;;3.14;100.00;103546.47;2066391;28;20278;-60
2023/02/13 01:12:47;;;;;;;56.90;41.93;;;;;;;3.09;100.00;103539.16;2071703;28;20192;-60
2023/02/13 01:13:48;;;;;;;60.83;44.13;;;;;;;3.08;100.00;103539.50;2074939;28;20681;-60
2023/02/13 01:14:48;;;;;;;55.90;42.43;;;;;;;2.81;100.00;103479.34;2066432;28;20207;-60
2023/02/13 01:15:50;;;;;;;53.63;40.77;;;;;;;3.00;100.00;103521.88;2078308;28;20216;-60
2023/02/13 01:16:50;;;;;;;54.95;40.35;;;;;;;3.12;100.00;103541.28;2063793;28;20183;-60
2023/02/13 01:17:56;;;;;;;49.23;39.27;;;;;;;3.09;100.00;103546.59;2074705;28;20186;-60
2023/02/13 01:18:56;;;;;;;55.13;42.13;;;;;;;3.09;100.00;103543.84;2064812;28;20572;-61
2023/02/13 01:19:57;;;;;;;54.67;40.07;;;;;;;3.12;100.00;103549.50;2076071;28;20182;-61
2023/02/13 01:21:01;;;;;;;55.47;42.33;;;;;;;3.14;100.00;103541.00;2070320;28;20194;-60
2023/02/13 01:22:01;;;;;;;62.38;43.28;;;;;;;3.14;100.00;103541.78;2068169;28;20734;-60
2023/02/13 01:23:02;;;;;;;52.27;40.60;;;;;;;2.36;100.00;103426.47;2071399;28;20634;-60
2023/02/13 01:24:04;;;;;;;51.30;39.07;;;;;;;3.12;100.00;103545.94;2071459;28;20177;-60
2023/02/13 01:25:05;;;;;;;57.75;42.40;;;;;;;3.12;100.00;103541.28;2071468;28;20656;-61
2023/02/13 01:26:07;;;;;;;54.65;41.55;;;;;;;3.11;100.00;103539.69;2071898;28;20174;-60
2023/02/13 01:27:08;;;;;;;55.20;42.63;;;;;;;3.12;100.00;103552.25;2072352;28;20648;-60
2023/02/13 01:28:08;;;;;;;54.77;40.77;;;;;;;3.13;100.00;103542.91;2070834;28;20559;-60
2023/02/13 01:29:12;;;;;;;57.00;41.77;;;;;;;2.60;100.00;103459.84;2071997;28;20190;-60
2023/02/13 01:30:14;;;;;;;52.47;40.97;;;;;;;3.07;100.00;103540.59;2067625;28;20210;-61
2023/02/13 01:31:14;;;;;;;56.28;41.15;;;;;;;3.09;100.00;103538.38;2069821;28;20174;-61
2023/02/13 01:32:15;;;;;;;54.20;40.17;;;;;;;3.06;100.00;103544.47;2069525;28;20721;-60
2023/02/13 01:33:15;;;;;;;57.10;40.87;;;;;;;3.02;100.00;103536.06;2071609;28;20177;-60
2023/02/13 01:34:16;;;;;;;54.03;40.77;;;;;;;3.01;100.00;103534.44;2071642;28;20177;-60
2023/02/13 01:35:16;;;;;;;55.47;41.87;;;;;;;3.01;100.00;103534.44;2064677;28;20224;-60
2023/02/13 01:36:16;;;;;;;49.17;39.07;;;;;;;2.97;100.00;103538.91;2073741;28;20182;-60
2023/02/13 01:37:18;;;;;;;55.17;42.23;;;;;;;2.42;100.00;103449.88;2073022;28;20212;-60
2023/02/13 01:38:18;;;;;;;54.42;41.80;;;;;;;2.88;100.00;103540.78;2073232;28;20325;-60
2023/02/13 01:39:19;;;;;;;50.23;40.37;;;;;;;2.86;100.00;103542.22;2068220;28;20234;-60
2023/02/13 01:40:19;;;;;;;53.40;40.27;;;;;;;2.81;100.00;103539.59;2069186;28;20641;-60
2023/02/13 01:41:20;;;;;;;53.80;39.67;;;;;;;2.79;100.00;103548.13;2073097;28;20201;-60
2023/02/13 01:42:24;;;;;;;54.43;41.90;;;;;;;2.63;100.00;103532.34;2072919;28;20198;-60
2023/02/13 01:43:47;;;;;;;54.55;41.83;;;;;;;2.62;100.00;103536.22;2069976;28;20679;-60
2023/02/13 01:44:47;;;;;;;55.53;40.60;;;;;;;2.64;100.00;103533.97;2066852;28;20183;-60
2023/02/13 01:45:53;;;;;;;56.83;41.23;;;;;;;2.63;100.00;103532.34;2071087;28;20176;-60
2023/02/13 01:46:53;;;;;;;56.60;42.17;;;;;;;2.60;100.00;103541.19;2066412;28;20197;-60
2023/02/13 01:48:02;;;;;;;59.73;43.70;;;;;;;2.10;100.00;103471.16;2072797;28;20182;-60
2023/02/13 01:49:19;;;;;;;58.50;41.42;;;;;;;2.57;100.00;103528.13;2065073;28;20253;-60
2023/02/13 01:50:38;;;;;;;58.78;43.33;;;;;;;2.55;100.00;103552.25;2071869;28;20206;-60
2023/02/13 01:51:39;;;;;;;58.60;41.85;;;;;;;2.53;100.00;103535.31;2067454;28;20185;-60
2023/02/13 01:52:44;;;;;;;58.80;42.50;;;;;;;2.50;100.00;103544.13;2072486;28;20182;-61
2023/02/13 01:53:47;;;;;;;59.70;43.25;;;;;;;2.48;100.00;103540.91;2072411;28;20209;-60
2023/02/13 01:54:47;;;;;;;57.00;42.95;;;;;;;2.41;100.00;103529.59;2072551;28;20197;-60
2023/02/13 01:55:56;;;;;;;59.97;42.70;;;;;;;2.46;100.00;103537.69;2072844;28;20785;-60
2023/02/13 01:57:04;;;;;;;59.78;43.30;;;;;;;2.45;100.00;103539.59;2073274;28;20291;-60
2023/02/13 01:58:10;;;;;;;57.35;42.35;;;;;;;2.46;100.00;103533.00;2069532;28;20174;-60
2023/02/13 01:59:16;;;;;;;56.10;41.45;;;;;;;2.43;100.00;103536.38;2073158;28;20189;-60
2023/02/13 02:00:17;;;;;;;61.60;43.30;;;;;;;2.30;100.00;103523.50;2073112;28;20189;-60
2023/02/13 02:01:18;;;;;;;59.28;42.25;;;;;;;2.38;100.00;103539.22;2073039;28;20190;-60
2023/02/13 02:02:20;;;;;;;58.00;42.25;;;;;;;1.68;100.00;103428.56;2073245;28;20221;-60
2023/02/13 02:03:26;;;;;;;60.08;43.33;;;;;;;2.35;100.00;103537.06;2068410;28;20204;-60
2023/02/13 02:04:31;;;;;;;57.55;41.85;;;;;;;2.38;100.00;103552.09;2068064;28;20173;-60
2023/02/13 02:05:35;;;;;;;57.72;42.60;;;;;;;2.41;100.00;103543.28;2072332;28;20202;-60
2023/02/13 02:06:43;;;;;;;62.67;42.42;;;;;;;2.41;100.00;103544.06;2073030;28;20180;-60
2023/02/13 02:07:44;;;;;;;57.33;42.42;;;;;;;2.32;100.00;103537.69;2072915;28;20741;-60
2023/02/13 02:08:47;;;;;;;58.08;42.30;;;;;;;2.42;100.00;103564.03;2073248;28;20188;-60
2023/02/13 02:09:50;;;;;;;59.72;41.95;;;;;;;2.42;100.00;103544.88;2073104;28;20261;-60
2023/02/13 02:10:51;;;;;;;57.17;41.83;;;;;;;2.42;100.00;103539.41;2073257;28;20304;-60
2023/02/13 02:11:54;;;;;;;57.80;42.93;;;;;;;2.42;100.00;103544.88;2065069;28;20217;-60
2023/02/13 02:13:05;;;;;;;55.95;42.95;;;;;;;2.43;100.00;103551.97;2071841;28;20424;-60
2023/02/13 02:14:06;;;;;;;56.13;42.85;;;;;;;2.44;100.00;103539.91;2064870;28;20246;-60
2023/02/13 02:15:07;;;;;;;54.23;39.90;;;;;;;2.39;100.00;103540.84;2070618;28;20760;-61
2023/02/13 02:16:07;;;;;;;55.42;41.60;;;;;;;2.38;100.00;103546.59;2067338;28;20613;-61
2023/02/13 02:17:08;;;;;;;51.40;38.93;;;;;;;2.07;100.00;103494.47;2069222;28;20317;-60
2023/02/13 02:18:15;;;;;;;52.88;38.70;;;;;;;2.39;100.00;103537.28;2069615;28;20194;-60
2023/02/13 02:19:53;;;;;;;55.95;41.13;;;;;;;2.35;100.00;103541.72;2067827;28;20710;-60
2023/02/13 02:21:09;;;;;;;59.35;42.22;;;;;;;2.32;100.00;103532.22;2071735;28;20417;-60
2023/02/13 02:22:31;;;;;;;55.50;41.13;;;;;;;2.33;100.00;103542.06;2070185;28;20193;-60
2023/02/13 02:23:34;;;;;;;56.05;41.00;;;;;;;2.34;100.00;103540.94;2071070;28;20189;-60
2023/02/13 02:24:46;;;;;;;52.40;39.65;;;;;;;2.31;100.00;103543.47;2072786;28;20178;-60
2023/02/13 02:26:24;;;;;;;59.75;43.63;;;;;;;2.27;100.00;103543.25;2064204;28;20175;-60
2023/02/13 02:27:36;;;;;;;57.47;41.85;;;;;;;2.25;100.00;103547.41;2072859;28;20239;-60
2023/02/13 02:28:46;;;;;;;53.80;39.88;;;;;;;2.18;100.00;103561.53;2073085;28;20189;-60
2023/02/13 02:30:08;;;;;;;55.47;41.55;;;;;;;2.11;100.00;103552.13;2068322;28;20198;-60
2023/02/13 02:31:38;;;;;;;58.85;42.78;;;;;;;2.00;100.00;103559.69;2071161;28;20170;-60
2023/02/13 02:32:47;;;;;;;61.72;44.28;;;;;;;1.94;100.00;103552.72;2070972;28;20189;-60
2023/02/13 02:33:54;;;;;;;62.92;45.85;;;;;;;1.85;100.00;103553.75;2073170;28;20181;-61
2023/02/13 02:35:08;;;;;;;69.68;50.33;;;;;;;1.76;100.00;103555.53;2064574;28;20579;-61
2023/02/13 02:36:36;;;;;;;61.30;45.10;;;;;;;1.28;100.00;103477.75;2064446;28;20169;-60
2023/02/13 02:38:00;;;;;;;65.38;47.90;;;;;;;1.78;100.00;103550.56;2067532;28;20185;-60
2023/02/13 02:39:29;;;;;;;65.72;47.95;;;;;;;1.77;100.00;103552.50;2072764;28;20196;-60
2023/02/13 02:40:50;;;;;;;69.00;47.53;;;;;;;1.80;100.00;103556.56;2071539;28;20587;-60
2023/02/13 02:42:00;;;;;;;71.32;49.58;;;;;;;1.75;100.00;103565.66;2065101;28;20519;-60
2023/02/13 02:43:39;;;;;;;64.32;47.63;;;;;;;1.78;100.00;103570.53;2064451;28;20165;-60
2023/02/13 02:44:47;;;;;;;65.18;46.97;;;;;;;1.04;100.00;103458.75;2070118;28;20202;-60
2023/02/13 02:46:16;;;;;;;72.10;50.60;;;;;;;1.74;100.00;103568.69;2067961;28;20189;-60
2023/02/13 02:51:02;;;;;;;68.60;48.17;;;;;;;1.88;100.00;103555.84;2072884;28;20205;-60
2023/02/13 02:52:07;;;;;;;66.90;46.97;;;;;;;1.92;100.00;103562.34;2064717;28;20182;-60
2023/02/13 02:53:25;;;;;;;64.90;46.35;;;;;;;1.10;100.00;103413.03;2065889;28;20197;-60
2023/02/13 02:55:07;;;;;;;62.33;44.85;;;;;;;2.00;100.00;103559.69;2064243;28;20174;-60
2023/02/13 02:56:17;;;;;;;64.88;46.60;;;;;;;2.05;100.00;103558.81;2068243;28;20313;-60
2023/02/13 03:06:09;;;;;;;64.68;45.65;;;;;;;2.07;100.00;103556.56;2068026;28;20241;-60
2023/02/13 03:06:12;;;;;;;60.63;43.65;;;;;;;2.06;100.00;103533.84;2064661;28;20241;-60
2023/02/13 03:07:16;;;;;;;58.45;43.30;;;;;;;2.20;100.00;103561.22;2072144;28;20154;-60
2023/02/13 03:13:17;;;;;;;57.33;44.08;;;;;;;2.21;100.00;103560.13;2072599;28;20212;-61
2023/02/13 03:13:52;;;;;;;58.70;41.33;;;;;;;1.94;100.00;103511.69;2072467;28;20209;-60
2023/02/13 03:14:53;;;;;;;57.28;42.47;;;;;;;2.26;100.00;103568.22;2072125;28;20256;-60
2023/02/13 03:22:19;;;;;;;59.90;41.05;;;;;;;1.78;100.00;103495.88;2067230;28;20189;-60
2023/02/13 03:23:31;;;;;;;59.72;43.28;;;;;;;2.13;100.00;103555.34;2069095;28;20181;-60
2023/02/13 03:24:50;;;;;;;58.22;41.75;;;;;;;2.11;100.00;103560.31;2070525;28;20219;-60
2023/02/13 03:26:15;;;;;;;57.55;41.90;;;;;;;2.06;100.00;103554.94;2066743;28;20177;-60
2023/02/13 03:31:15;;;;;;;58.42;41.20;;;;;;;1.89;100.00;103558.28;2070524;28;20182;-60
2023/02/13 03:32:44;;;;;;;61.22;42.65;;;;;;;1.91;100.00;103556.03;2072378;28;20177;-60
2023/02/13 03:34:03;;;;;;;59.83;41.10;;;;;;;1.92;100.00;103560.44;2066958;28;20166;-60
2023/02/13 03:38:34;;;;;;;62.65;41.72;;;;;;;1.82;100.00;103568.81;2065702;28;20181;-60
2023/02/13 03:39:59;;;;;;;62.00;44.58;;;;;;;1.70;100.00;103551.28;2067759;28;20189;-60
2023/02/13 03:41:17;;;;;;;63.95;43.13;;;;;;;1.52;100.00;103531.13;2069036;28;20690;-60
2023/02/13 03:42:38;;;;;;;64.70;46.22;;;;;;;1.71;100.00;103566.56;2065577;28;20599;-60
2023/02/13 03:44:11;;;;;;;67.20;47.05;;;;;;;1.68;100.00;103572.63;2070938;28;20675;-60
2023/02/13 03:46:41;;;;;;;66.63;46.95;;;;;;;1.64;100.00;103558.75;2067836;28;20190;-60
2023/02/13 03:47:43;;;;;;;69.90;47.67;;;;;;;1.73;100.00;103564.34;2072192;28;20205;-60
2023/02/13 03:50:06;;;;;;;69.80;47.63;;;;;;;1.78;100.00;103562.34;2072732;28;20201;-60
2023/02/13 03:51:09;;;;;;;64.30;46.75;;;;;;;1.75;100.00;103575.81;2072220;28;20189;-60
2023/02/13 03:52:17;;;;;;;63.58;46.63;;;;;;;1.64;100.00;103541.56;2071597;28;20676;-60
2023/02/13 03:53:18;;;;;;;65.55;46.75;;;;;;;1.12;100.00;103457.25;2071767;28;20785;-60
2023/02/13 04:00:08;;;;;;;58.78;39.75;;;;;;;1.57;100.00;103541.13;2064718;28;20167;-60
2023/02/13 04:01:14;;;;;;;59.90;43.88;;;;;;;1.67;100.00;103584.69;2072011;28;20618;-60
2023/02/13 04:02:19;;;;;;;66.30;45.45;;;;;;;1.70;100.00;103593.09;2072917;28;20245;-60
2023/02/13 04:03:20;;;;;;;60.17;45.53;;;;;;;1.66;100.00;103570.22;2064028;28;20641;-60
2023/02/13 04:04:51;;;;;;;60.93;44.90;;;;;;;1.70;100.00;103564.97;2071353;28;20567;-60
2023/02/13 04:06:00;;;;;;;59.30;41.33;;;;;;;1.71;100.00;103563.84;2063557;28;20167;-60
2023/02/13 04:07:08;;;;;;;58.95;42.53;;;;;;;1.71;100.00;103570.09;2065322;28;20173;-60
2023/02/13 04:08:08;;;;;;;64.85;48.05;;;;;;;1.68;100.00;103565.25;2072217;28;20158;-60
2023/02/13 04:09:09;;;;;;;62.90;47.30;;;;;;;1.69;100.00;103563.34;2071266;28;20659;-60
2023/02/13 04:10:13;;;;;;;65.80;45.40;;;;;;;1.37;100.00;103523.19;2071698;28;20174;-60
2023/02/13 04:11:16;;;;;;;60.90;45.92;;;;;;;1.71;100.00;103566.56;2069845;28;20257;-60
2023/02/13 04:12:31;;;;;;;62.08;44.90;;;;;;;1.71;100.00;103561.91;2065744;28;20209;-60
2023/02/13 04:13:41;;;;;;;65.03;46.83;;;;;;;1.61;100.00;103547.63;2071964;28;20642;-60
2023/02/13 04:15:03;;;;;;;69.25;49.80;;;;;;;1.70;100.00;103571.22;2071475;28;20176;-60
2023/02/13 04:16:36;;;;;;;74.25;49.35;;;;;;;1.63;100.00;103575.47;2071652;28;20592;-60
2023/02/13 04:17:42;;;;;;;75.10;51.72;;;;;;;1.61;100.00;103578.53;2079010;28;20671;-60
2023/02/13 04:18:44;;;;;;;73.15;49.85;;;;;;;1.61;100.00;103573.06;2078993;28;20236;-60
2023/02/13 04:19:44;;;;;;;72.60;50.83;;;;;;;1.71;100.00;103569.31;2078216;28;20206;-60
2023/02/13 04:20:45;;;;;;;69.33;47.67;;;;;;;1.75;100.00;103592.22;2074940;28;20745;-60
2023/02/13 04:21:48;;;;;;;66.87;45.77;;;;;;;1.77;100.00;103573.56;2072125;28;21289;-61
2023/02/13 04:22:49;;;;;;;67.93;48.55;;;;;;;1.74;100.00;103568.69;2071762;28;20288;-60
2023/02/13 04:23:49;;;;;;;70.10;49.00;;;;;;;1.79;100.00;103574.88;2071974;28;20651;-60
2023/02/13 04:24:50;;;;;;;74.50;52.57;;;;;;;1.31;100.00;103510.72;2071876;28;20664;-60
2023/02/13 04:25:54;;;;;;;70.47;49.20;;;;;;;1.01;100.00;103464.81;2071845;28;20177;-60
2023/02/13 04:26:56;;;;;;;70.03;50.70;;;;;;;1.79;100.00;103579.53;2064281;28;20240;-60
2023/02/13 04:27:56;;;;;;;73.25;51.53;;;;;;;1.73;100.00;103567.06;2071471;28;20239;-60
2023/02/13 04:28:57;;;;;;;67.93;49.07;;;;;;;1.81;100.00;103580.84;2072146;28;20190;-60
2023/02/13 04:29:57;;;;;;;69.17;50.23;;;;;;;1.78;100.00;103584.22;2072001;28;20243;-60
2023/02/13 04:30:57;;;;;;;62.77;45.97;;;;;;;1.71;100.00;103577.50;2071616;28;20677;-60
2023/02/13 04:31:58;;;;;;;67.10;48.60;;;;;;;1.73;100.00;103575.28;2071919;28;20637;-60
2023/02/13 04:32:58;;;;;;;67.67;49.57;;;;;;;1.78;100.00;103578.75;2071863;28;20185;-60
2023/02/13 04:33:59;;;;;;;68.47;49.97;;;;;;;1.53;100.00;103542.84;2071950;28;20184;-60
2023/02/13 04:34:59;;;;;;;64.93;47.80;;;;;;;1.04;100.00;103455.22;2071987;28;20209;-60
2023/02/13 04:36:00;;;;;;;67.37;49.30;;;;;;;1.85;100.00;103581.09;2064021;28;20205;-60
2023/02/13 04:37:00;;;;;;;67.80;48.83;;;;;;;1.85;100.00;103581.09;2070406;28;20557;-60
2023/02/13 04:38:01;;;;;;;68.40;49.87;;;;;;;1.88;100.00;103585.94;2072433;28;20225;-60
2023/02/13 04:39:02;;;;;;;68.38;50.28;;;;;;;1.63;100.00;103556.31;2071755;28;20264;-60
2023/02/13 04:40:03;;;;;;;68.13;49.13;;;;;;;1.92;100.00;103586.94;2068987;28;20194;-60
2023/02/13 04:41:03;;;;;;;64.40;48.67;;;;;;;1.98;100.00;103578.34;2065632;28;20186;-60
2023/02/13 04:42:04;;;;;;;69.77;52.13;;;;;;;2.00;100.00;103580.78;2070958;28;20328;-61
2023/02/13 04:43:04;;;;;;;66.60;49.53;;;;;;;1.88;100.00;103575.00;2063107;28;20179;-60
2023/02/13 04:44:05;;;;;;;71.53;49.77;;;;;;;2.05;100.00;103583.44;2070840;28;20189;-60
2023/02/13 04:45:05;;;;;;;67.83;49.37;;;;;;;1.99;100.00;103576.41;2065059;28;20692;-60
2023/02/13 04:46:06;;;;;;;67.20;48.00;;;;;;;2.06;100.00;103583.09;2064172;28;20201;-60
2023/02/13 04:47:06;;;;;;;68.77;49.20;;;;;;;2.07;100.00;103590.22;2073158;28;20263;-60
2023/02/13 04:48:08;;;;;;;67.67;49.03;;;;;;;2.09;100.00;103584.41;2073385;28;20213;-60
2023/02/13 04:49:10;;;;;;;64.55;47.58;;;;;;;2.12;100.00;103584.66;2069698;28;20182;-60
2023/02/13 04:50:10;;;;;;;66.07;47.60;;;;;;;2.17;100.00;103589.19;2077311;28;20650;-60
2023/02/13 04:51:10;;;;;;;66.17;47.67;;;;;;;2.12;100.00;103578.34;2064376;28;20835;-60
2023/02/13 04:52:11;;;;;;;64.73;46.80;;;;;;;2.16;100.00;103587.59;2079149;28;20189;-60
2023/02/13 04:53:11;;;;;;;65.63;47.70;;;;;;;2.10;100.00;103586.06;2071869;28;20240;-60
2023/02/13 04:54:12;;;;;;;66.20;48.10;;;;;;;2.14;100.00;103587.88;2074057;28;20186;-60
2023/02/13 04:55:12;;;;;;;69.23;47.63;;;;;;;2.08;100.00;103585.53;2066271;28;20341;-60
2023/02/13 04:56:13;;;;;;;63.20;46.47;;;;;;;2.13;100.00;103591.75;2063969;28;20648;-60
2023/02/13 04:57:14;;;;;;;66.90;47.43;;;;;;;2.18;100.00;103588.91;2066299;28;20256;-60
2023/02/13 04:58:14;;;;;;;67.53;49.20;;;;;;;2.17;100.00;103584.50;2070499;28;20180;-60
2023/02/13 04:59:15;;;;;;;66.83;48.03;;;;;;;2.23;100.00;103597.00;2067669;28;20221;-60
2023/02/13 05:00:15;;;;;;;59.97;46.13;;;;;;;2.23;100.00;103593.44;2072179;28;20185;-60
2023/02/13 05:01:16;;;;;;;64.73;47.93;;;;;;;2.27;100.00;103598.00;2071690;28;20292;-60
2023/02/13 05:02:17;;;;;;;64.93;46.97;;;;;;;2.30;100.00;103600.13;2066668;28;20198;-60
2023/02/13 05:03:17;;;;;;;63.93;47.00;;;;;;;2.31;100.00;103606.44;2070628;28;20695;-60
2023/02/13 05:04:18;;;;;;;64.40;46.30;;;;;;;2.32;100.00;103600.63;2072649;28;20559;-67
2023/02/13 05:05:19;;;;;;;62.17;46.00;;;;;;;2.33;100.00;103604.19;2072314;28;20636;-65
2023/02/13 05:06:19;;;;;;;62.08;46.85;;;;;;;2.38;100.00;103595.88;2072794;28;20189;-67
2023/02/13 05:07:20;;;;;;;64.67;46.97;;;;;;;2.40;100.00;103610.06;2071830;28;20185;-67
2023/02/13 05:08:20;;;;;;;60.23;46.07;;;;;;;2.42;100.00;103613.31;2072216;28;20228;-67
2023/02/13 05:09:21;;;;;;;64.27;47.27;;;;;;;2.40;100.00;103599.09;2071326;28;20626;-68
2023/02/13 05:10:21;;;;;;;64.23;47.17;;;;;;;2.46;100.00;103597.91;2073251;28;20255;-67
2023/02/13 05:11:22;;;;;;;66.17;48.70;;;;;;;2.46;100.00;103595.97;2072108;28;20198;-67
2023/02/13 05:12:22;;;;;;;64.87;48.67;;;;;;;2.49;100.00;103598.09;2072544;28;20224;-67
2023/02/13 05:13:23;;;;;;;63.77;47.83;;;;;;;2.52;100.00;103602.16;2072254;28;20505;-68
2023/02/13 05:14:23;;;;;;;62.77;46.23;;;;;;;2.50;100.00;103598.88;2072712;28;20190;-65
2023/02/13 05:15:24;;;;;;;63.30;46.90;;;;;;;2.48;100.00;103593.75;2072184;28;20281;-66
2023/02/13 05:16:24;;;;;;;65.77;48.00;;;;;;;2.38;100.00;103582.19;2072614;28;20181;-65
2023/02/13 05:17:25;;;;;;;63.40;45.10;;;;;;;2.45;100.00;103599.81;2071904;28;20425;-65
2023/02/13 05:18:25;;;;;;;63.17;46.37;;;;;;;2.33;100.00;103577.66;2072029;28;20717;-65
2023/02/13 05:19:25;;;;;;;59.80;45.13;;;;;;;2.49;100.00;103591.81;2072861;28;20204;-65
2023/02/13 05:20:26;;;;;;;63.83;47.40;;;;;;;2.51;100.00;103597.81;2072595;28;20568;-65
2023/02/13 05:24:07;;;;;;;55.22;42.50;;;;;;;2.38;100.00;103591.22;2069471;28;20189;-65
2023/02/13 05:25:07;;;;;;;59.87;43.73;;;;;;;2.33;100.00;103594.06;2071397;28;20288;-65
2023/02/13 05:26:08;;;;;;;58.00;43.97;;;;;;;2.16;100.00;103569.22;2072278;28;20563;-65
2023/02/13 05:27:08;;;;;;;59.17;45.60;;;;;;;1.90;100.00;103529.03;2071918;28;20208;-65
2023/02/13 05:29:17;;;;;;;59.40;43.17;;;;;;;2.27;100.00;103594.47;2068860;28;20233;-67
2023/02/13 05:29:29;;;;;;;59.00;42.97;;;;;;;2.22;100.00;103602.78;2069287;28;20186;-63
2023/02/13 05:30:29;;;;;;;59.13;44.37;;;;;;;1.70;100.00;103521.22;2069911;28;20177;-61
2023/02/13 05:31:30;;;;;;;58.43;43.90;;;;;;;2.05;100.00;103581.47;2072965;28;20196;-61
2023/02/13 05:32:30;;;;;;;60.83;44.03;;;;;;;2.14;100.00;103600.72;2072313;28;20236;-65
2023/02/13 05:33:31;;;;;;;61.93;44.93;;;;;;;1.33;100.00;103466.69;2071684;28;20328;-63
2023/02/13 05:34:31;;;;;;;61.90;44.80;;;;;;;1.91;100.00;103563.47;2071750;28;20193;-63